Arispe, Iowa
Current Conditions -  °F | °C
As of 7:35 AM on Friday 19 Dec 2014 (Local Time) from KCSQ Reporting Station
Haze Haze  
Wind Chill: -5°   Ceiling: 500
Heat Index: -2°   Visibility: 6mi
Dew Point: -2°   Wind: 6mph
Humidity: 100%   Direction: 150°SSE
Pressure: 30.23"   Gusts: NA
Location:  40.95°N, 94.22°W
Report Text: KCSQ 191335Z AUTO 15005KT 6SM BR BKN005 BKN009 OVC028 M02/M02 A3023 RMK AO2
Loading
Personal Weather Stations






























Interactive Weather Map New forecast layout! Learn more

10-Day Weather Forecast

Advertisements
Track Severe Weather on mobile